createdAt,value
2022-10-20T00:01:28.340Z,57.55
2022-10-20T00:03:57.246Z,57.41
2022-10-20T00:06:31.748Z,57.48
2022-10-20T00:09:02.743Z,57.53
2022-10-20T00:11:31.582Z,57.40
2022-10-20T00:14:01.626Z,57.55
2022-10-20T00:16:32.169Z,57.57
2022-10-20T00:19:00.162Z,57.46
2022-10-20T00:21:29.665Z,57.66
2022-10-20T00:24:01.405Z,57.59
2022-10-20T00:26:31.659Z,57.83
2022-10-20T00:29:03.634Z,57.54
2022-10-20T00:31:31.882Z,57.58
2022-10-20T00:33:59.755Z,57.77
2022-10-20T00:36:27.673Z,57.72
2022-10-20T00:39:00.827Z,57.76
2022-10-20T00:41:30.266Z,57.49
2022-10-20T00:44:48.969Z,57.64
2022-10-20T00:47:34.598Z,57.52
2022-10-20T00:50:31.951Z,57.36
2022-10-20T00:53:01.640Z,57.72
2022-10-20T00:55:34.173Z,57.69
2022-10-20T00:58:03.555Z,57.82
2022-10-20T01:00:31.671Z,57.56
2022-10-20T01:03:02.759Z,57.80
2022-10-20T01:05:30.669Z,57.57
2022-10-20T01:07:58.545Z,57.43
2022-10-20T01:10:32.337Z,57.46
2022-10-20T01:13:27.924Z,56.99
2022-10-20T01:16:13.389Z,57.10
2022-10-20T01:19:25.364Z,57.28
2022-10-20T01:22:28.022Z,57.23
2022-10-20T01:25:08.627Z,57.50
2022-10-20T01:28:06.989Z,57.52
2022-10-20T01:30:42.715Z,57.28
2022-10-20T01:33:50.581Z,57.33
2022-10-20T01:36:36.208Z,57.28
2022-10-20T01:39:13.872Z,57.44
2022-10-20T01:41:54.384Z,57.35
2022-10-20T01:44:27.020Z,57.44
2022-10-20T01:46:57.129Z,57.61
2022-10-20T01:49:26.073Z,57.31
2022-10-20T01:51:55.115Z,57.39
2022-10-20T01:54:28.604Z,57.31
2022-10-20T01:57:43.108Z,57.06
2022-10-20T02:00:15.036Z,57.12
2022-10-20T02:03:03.901Z,57.22
2022-10-20T02:06:17.319Z,57.28
2022-10-20T02:08:57.222Z,56.96
2022-10-20T02:11:48.267Z,57.19
2022-10-20T02:14:20.410Z,57.15
2022-10-20T02:16:54.548Z,57.20
2022-10-20T02:19:26.584Z,57.30
2022-10-20T02:21:57.395Z,57.15
2022-10-20T02:24:34.279Z,56.97
2022-10-20T02:27:25.071Z,57.20
2022-10-20T02:30:16.344Z,57.13
2022-10-20T02:32:51.760Z,57.29
2022-10-20T02:35:32.308Z,57.20
2022-10-20T02:38:00.219Z,57.21
2022-10-20T02:40:28.667Z,57.68
2022-10-20T02:42:56.504Z,57.49
2022-10-20T02:45:24.443Z,57.49
2022-10-20T02:47:52.301Z,57.47
2022-10-20T02:50:20.251Z,57.49
2022-10-20T02:52:48.167Z,57.48
2022-10-20T02:55:16.094Z,57.53
2022-10-20T02:57:43.939Z,57.62
2022-10-20T03:00:12.755Z,57.98
2022-10-20T03:02:40.615Z,57.90
2022-10-20T03:05:08.953Z,57.95
2022-10-20T03:07:37.199Z,57.63
2022-10-20T03:10:06.588Z,57.78
2022-10-20T03:12:34.409Z,57.75
2022-10-20T03:15:02.381Z,57.76
2022-10-20T03:17:30.190Z,57.77
2022-10-20T03:19:58.038Z,57.68
2022-10-20T03:22:25.900Z,57.82
2022-10-20T03:24:53.759Z,57.55
2022-10-20T03:27:21.691Z,57.53
2022-10-20T03:29:49.579Z,57.58
2022-10-20T03:32:17.503Z,57.32
2022-10-20T03:34:45.335Z,57.41
2022-10-20T03:37:13.174Z,57.34
2022-10-20T03:39:41.311Z,57.45
2022-10-20T03:42:09.132Z,57.40
2022-10-20T03:44:36.988Z,57.50
2022-10-20T03:47:04.811Z,57.49
2022-10-20T03:49:34.063Z,57.39
2022-10-20T03:52:01.955Z,57.43
2022-10-20T03:54:29.867Z,57.26
2022-10-20T03:56:57.757Z,57.41
2022-10-20T03:59:28.092Z,57.32
2022-10-20T04:01:58.387Z,57.38
2022-10-20T04:04:26.357Z,57.46
2022-10-20T04:06:54.136Z,57.46
2022-10-20T04:09:22.110Z,57.72
2022-10-20T04:11:49.921Z,57.39
2022-10-20T04:14:17.767Z,57.52
2022-10-20T04:16:45.600Z,57.56
2022-10-20T04:19:13.801Z,57.60
2022-10-20T04:21:41.667Z,57.69
2022-10-20T04:24:09.517Z,57.51
2022-10-20T04:26:37.338Z,57.63
2022-10-20T04:29:05.309Z,57.70
2022-10-20T04:31:33.145Z,57.58
2022-10-20T04:34:01.046Z,57.90
2022-10-20T04:36:28.877Z,57.84
2022-10-20T04:38:56.716Z,57.87
2022-10-20T04:41:24.522Z,57.76
2022-10-20T04:43:53.250Z,57.87
2022-10-20T04:46:21.142Z,57.86
2022-10-20T04:48:49.002Z,57.84
2022-10-20T04:51:17.152Z,57.83
2022-10-20T04:53:45.429Z,57.82
2022-10-20T04:56:19.692Z,58.11
2022-10-20T04:58:56.472Z,57.90
2022-10-20T05:01:28.215Z,57.96
2022-10-20T05:03:56.737Z,57.95
2022-10-20T05:06:28.935Z,58.13
2022-10-20T05:09:00.234Z,57.99
2022-10-20T05:11:30.322Z,57.77
2022-10-20T05:13:58.726Z,57.90
2022-10-20T05:16:27.022Z,57.82
2022-10-20T05:18:56.058Z,57.86
2022-10-20T05:21:28.371Z,58.05
2022-10-20T05:24:02.936Z,58.00
2022-10-20T05:26:37.073Z,57.98
2022-10-20T05:29:07.833Z,57.96
2022-10-20T05:31:43.760Z,57.80
2022-10-20T05:34:12.615Z,57.83
2022-10-20T05:36:40.690Z,58.03
2022-10-20T05:39:08.556Z,57.89
2022-10-20T05:41:39.473Z,57.87
2022-10-20T05:44:09.168Z,57.97
2022-10-20T05:46:43.667Z,58.02
2022-10-20T05:49:15.995Z,57.95
2022-10-20T05:51:46.488Z,57.98
2022-10-20T05:54:15.463Z,58.11
2022-10-20T05:56:43.561Z,58.18
2022-10-20T05:59:14.005Z,58.48
2022-10-20T06:01:48.444Z,58.39
2022-10-20T06:04:28.161Z,58.54
2022-10-20T06:06:58.976Z,58.25
2022-10-20T06:09:27.182Z,58.47
2022-10-20T06:11:55.225Z,58.39
2022-10-20T06:14:23.346Z,58.30
2022-10-20T06:16:53.147Z,58.50
2022-10-20T06:19:21.053Z,58.29
2022-10-20T06:21:49.696Z,58.44
2022-10-20T06:24:19.076Z,58.39
2022-10-20T06:26:46.935Z,58.34
2022-10-20T06:29:18.191Z,58.25
2022-10-20T06:31:51.000Z,58.42
2022-10-20T06:34:28.053Z,58.23
2022-10-20T06:36:55.832Z,58.16
2022-10-20T06:39:25.260Z,58.31
2022-10-20T06:41:55.103Z,58.49
2022-10-20T06:44:24.629Z,58.37
2022-10-20T06:46:52.859Z,58.39
2022-10-20T06:49:21.427Z,58.40
2022-10-20T06:51:49.701Z,58.38
2022-10-20T06:54:18.531Z,58.43
2022-10-20T06:56:46.352Z,58.35
2022-10-20T06:59:14.230Z,58.46
2022-10-20T07:01:42.370Z,58.39
2022-10-20T07:04:16.826Z,58.51
2022-10-20T07:06:46.423Z,58.50
2022-10-20T07:09:18.773Z,58.66
2022-10-20T07:11:51.069Z,58.80
2022-10-20T07:14:19.565Z,58.76
2022-10-20T07:16:47.735Z,58.82
2022-10-20T07:19:15.929Z,58.93
2022-10-20T07:21:45.618Z,59.05
2022-10-20T07:24:17.201Z,59.12
2022-10-20T07:26:45.392Z,59.14
2022-10-20T07:29:14.886Z,58.91
2022-10-20T07:31:48.080Z,58.97
2022-10-20T07:34:27.219Z,59.10
2022-10-20T07:36:57.025Z,58.97
2022-10-20T07:39:26.177Z,58.97
2022-10-20T07:41:54.109Z,58.86
2022-10-20T07:44:22.086Z,58.91
2022-10-20T07:46:50.191Z,58.89
2022-10-20T07:52:06.238Z,58.65
2022-10-20T07:54:34.344Z,58.73
2022-10-20T07:57:02.286Z,58.57
2022-10-20T07:59:30.197Z,58.55
2022-10-20T08:01:59.837Z,58.47
2022-10-20T08:04:31.578Z,58.38
2022-10-20T08:07:00.389Z,58.25
2022-10-20T08:09:28.324Z,58.39
2022-10-20T08:11:57.957Z,58.51
2022-10-20T08:14:32.062Z,58.74
2022-10-20T08:17:01.832Z,58.45
2022-10-20T08:19:43.255Z,58.47
2022-10-20T08:22:11.594Z,58.34
2022-10-20T08:24:39.664Z,58.40
2022-10-20T08:27:08.070Z,58.57
2022-10-20T08:29:36.831Z,58.44
2022-10-20T08:32:05.453Z,58.34
2022-10-20T08:34:33.494Z,58.13
2022-10-20T08:37:01.337Z,58.64
2022-10-20T08:39:29.232Z,58.23
2022-10-20T08:42:12.895Z,58.59
2022-10-20T08:44:44.595Z,58.40
2022-10-20T08:47:47.716Z,58.22
2022-10-20T08:50:18.161Z,58.21
2022-10-20T08:52:50.400Z,58.10
2022-10-20T08:55:33.312Z,58.11
2022-10-20T08:58:16.927Z,58.18
2022-10-20T09:00:46.784Z,57.94
2022-10-20T09:03:34.125Z,58.03
2022-10-20T09:06:15.217Z,58.25
2022-10-20T09:08:49.092Z,57.97
2022-10-20T09:11:35.560Z,58.05
2022-10-20T09:14:04.108Z,57.71
2022-10-20T09:16:58.707Z,57.82
2022-10-20T09:19:29.344Z,57.64
2022-10-20T09:22:04.039Z,57.45
2022-10-20T09:24:35.229Z,57.63
2022-10-20T09:27:29.507Z,57.78
2022-10-20T09:29:57.258Z,57.67
2022-10-20T09:32:46.096Z,57.21
2022-10-20T09:35:30.132Z,57.29
2022-10-20T09:38:29.685Z,57.24
2022-10-20T09:41:28.428Z,57.07
2022-10-20T09:44:12.798Z,57.00
2022-10-20T09:46:49.369Z,56.79
2022-10-20T09:49:30.339Z,56.87
2022-10-20T09:52:00.289Z,56.68
2022-10-20T09:54:29.475Z,56.48
2022-10-20T09:57:18.989Z,56.67
2022-10-20T09:59:51.456Z,55.96
2022-10-20T10:02:22.078Z,56.17
2022-10-20T10:04:53.445Z,56.23
2022-10-20T10:07:27.373Z,55.98
2022-10-20T10:10:24.012Z,55.74
2022-10-20T10:12:57.932Z,55.64
2022-10-20T10:15:26.975Z,55.73
2022-10-20T10:17:55.470Z,55.58
2022-10-20T10:20:23.202Z,55.64
2022-10-20T10:22:51.206Z,55.52
2022-10-20T10:25:27.693Z,55.57
2022-10-20T10:28:19.856Z,55.50
2022-10-20T10:30:50.072Z,55.41
2022-10-20T10:33:29.122Z,55.42
2022-10-20T10:35:57.825Z,55.27
2022-10-20T10:38:25.683Z,55.19
2022-10-20T10:41:02.059Z,55.17
2022-10-20T10:44:30.095Z,55.33
2022-10-20T10:47:14.278Z,54.96
2022-10-20T10:50:31.081Z,55.06
2022-10-20T10:53:20.014Z,54.71
2022-10-20T10:55:55.829Z,54.99
2022-10-20T10:59:27.631Z,55.08
2022-10-20T11:02:19.386Z,54.70
2022-10-20T11:05:05.761Z,54.78
2022-10-20T11:07:39.227Z,54.62
2022-10-20T11:10:16.722Z,54.95
2022-10-20T11:13:31.392Z,54.64
2022-10-20T11:16:01.740Z,54.44
2022-10-20T11:19:21.690Z,54.69
2022-10-20T11:22:22.625Z,54.61
2022-10-20T11:25:27.849Z,54.19
2022-10-20T11:27:58.517Z,54.15
2022-10-20T11:30:27.552Z,53.76
2022-10-20T11:33:05.542Z,53.98
2022-10-20T11:35:40.442Z,53.85
2022-10-20T11:38:42.620Z,54.13
2022-10-20T11:41:38.368Z,53.52
2022-10-20T11:44:28.962Z,53.42
2022-10-20T11:47:23.054Z,53.88
2022-10-20T11:49:52.142Z,53.47
2022-10-20T11:52:46.129Z,53.43
2022-10-20T11:55:36.639Z,53.25
2022-10-20T11:58:29.368Z,53.35
2022-10-20T12:01:28.268Z,53.56
2022-10-20T12:04:19.696Z,53.23
2022-10-20T12:07:23.869Z,53.56
2022-10-20T12:10:15.354Z,53.34
2022-10-20T12:13:20.368Z,53.41
2022-10-20T12:15:51.892Z,53.34
2022-10-20T12:18:30.681Z,53.46
2022-10-20T12:21:01.561Z,53.58
2022-10-20T12:23:49.117Z,53.36
2022-10-20T12:26:43.881Z,53.59
2022-10-20T12:29:30.966Z,53.27
2022-10-20T12:32:29.985Z,53.43
2022-10-20T12:35:21.966Z,53.67
2022-10-20T12:38:19.006Z,53.58
2022-10-20T12:40:58.180Z,53.57
2022-10-20T12:43:32.188Z,53.42
2022-10-20T12:46:09.178Z,53.36
2022-10-20T12:48:44.858Z,54.09
2022-10-20T12:51:24.546Z,54.06
2022-10-20T12:54:17.947Z,54.56
2022-10-20T12:56:46.126Z,54.50
2022-10-20T12:59:33.686Z,54.35
2022-10-20T13:02:10.334Z,54.02
2022-10-20T13:04:58.190Z,54.58
2022-10-20T13:07:50.353Z,54.48
2022-10-20T13:10:37.447Z,54.62
2022-10-20T13:13:05.186Z,54.84
2022-10-20T13:15:44.836Z,54.94
2022-10-20T13:18:12.742Z,55.04
2022-10-20T13:21:28.537Z,54.98
2022-10-20T13:24:27.408Z,55.30
2022-10-20T13:27:00.657Z,55.95
2022-10-20T13:29:37.935Z,55.65
2022-10-20T13:32:34.334Z,55.33
2022-10-20T13:35:39.306Z,55.55
2022-10-20T13:38:23.828Z,55.53
2022-10-20T13:41:29.060Z,55.36
2022-10-20T13:44:22.502Z,55.21
2022-10-20T13:47:26.076Z,55.25
2022-10-20T13:50:09.852Z,55.69
2022-10-20T13:52:49.823Z,55.75
2022-10-20T13:55:52.028Z,55.64
2022-10-20T13:58:25.865Z,55.53
2022-10-20T14:01:07.501Z,55.54
2022-10-20T14:03:44.945Z,55.61
2022-10-20T14:06:28.107Z,55.72
2022-10-20T14:08:58.486Z,55.61
2022-10-20T14:11:32.114Z,55.80
2022-10-20T14:14:01.446Z,55.06
2022-10-20T14:16:31.872Z,55.71
2022-10-20T14:19:09.336Z,55.83
2022-10-20T14:21:51.107Z,55.96
2022-10-20T14:24:43.021Z,55.74
2022-10-20T14:27:31.941Z,55.86
2022-10-20T14:30:03.258Z,56.07
2022-10-20T14:32:35.326Z,55.98
2022-10-20T14:35:44.706Z,56.02
2022-10-20T14:38:38.505Z,56.09
2022-10-20T14:41:09.964Z,56.20
2022-10-20T14:43:41.814Z,56.25
2022-10-20T14:46:13.817Z,56.24
2022-10-20T14:48:49.229Z,56.46
2022-10-20T14:51:45.952Z,56.37
2022-10-20T14:54:25.885Z,56.36
2022-10-20T14:57:24.988Z,56.49
2022-10-20T15:00:06.236Z,56.42
2022-10-20T15:02:42.265Z,56.54
2022-10-20T15:05:37.827Z,56.42
2022-10-20T15:08:30.842Z,56.59
2022-10-20T15:10:59.111Z,56.64
2022-10-20T15:13:32.803Z,56.87
2022-10-20T15:16:02.991Z,56.06
2022-10-20T15:18:31.154Z,56.43
2022-10-20T15:20:59.054Z,56.62
2022-10-20T15:23:29.341Z,56.83
2022-10-20T15:26:14.551Z,56.63
2022-10-20T15:28:49.397Z,57.07
2022-10-20T15:31:22.205Z,57.04
2022-10-20T15:33:50.993Z,56.78
2022-10-20T15:36:22.571Z,57.06
2022-10-20T15:38:51.292Z,56.95
2022-10-20T15:41:22.729Z,56.88
2022-10-20T15:43:50.990Z,56.91
2022-10-20T15:46:20.277Z,56.87
2022-10-20T15:48:49.151Z,56.79
2022-10-20T15:51:24.593Z,56.61
2022-10-20T15:53:52.615Z,56.56
2022-10-20T15:56:20.828Z,56.77
2022-10-20T15:58:52.076Z,57.07
2022-10-20T16:01:21.780Z,57.01
2022-10-20T16:03:50.363Z,57.12
2022-10-20T16:06:19.633Z,57.31
2022-10-20T16:08:49.963Z,57.08
2022-10-20T16:11:20.383Z,56.99
2022-10-20T16:13:48.939Z,57.08
2022-10-20T16:16:19.789Z,57.01
2022-10-20T16:18:47.692Z,56.95
2022-10-20T16:21:15.516Z,57.00
2022-10-20T16:23:44.966Z,57.16
2022-10-20T16:26:14.421Z,57.18
2022-10-20T16:28:42.522Z,57.11
2022-10-20T16:31:14.234Z,57.17
2022-10-20T16:33:42.841Z,57.15
2022-10-20T16:36:14.967Z,57.34
2022-10-20T16:38:43.855Z,57.22
2022-10-20T16:41:15.481Z,57.34
2022-10-20T16:43:46.135Z,57.21
2022-10-20T16:46:16.051Z,57.30
2022-10-20T16:48:47.571Z,57.33
2022-10-20T16:51:17.275Z,57.39
2022-10-20T16:53:45.395Z,57.51
2022-10-20T16:56:16.600Z,57.50
2022-10-20T16:58:48.163Z,57.57
2022-10-20T17:01:19.309Z,57.71
2022-10-20T17:03:50.861Z,57.92
2022-10-20T17:06:23.680Z,57.70
2022-10-20T17:08:53.233Z,57.70
2022-10-20T17:11:30.615Z,57.91
2022-10-20T17:13:59.588Z,57.96
2022-10-20T17:16:34.222Z,57.95
2022-10-20T17:19:03.399Z,57.99
2022-10-20T17:21:32.862Z,57.97
2022-10-20T17:24:01.592Z,58.02
2022-10-20T17:26:31.495Z,58.10
2022-10-20T17:29:01.402Z,58.26
2022-10-20T17:31:30.004Z,58.19
2022-10-20T17:33:59.295Z,58.15
2022-10-20T17:36:28.592Z,58.24
2022-10-20T17:39:07.255Z,58.45
2022-10-20T17:41:36.194Z,58.35
2022-10-20T17:44:07.800Z,58.52
2022-10-20T17:46:36.254Z,58.50
2022-10-20T17:49:04.409Z,58.53
2022-10-20T17:51:34.777Z,58.66
2022-10-20T17:54:03.955Z,58.58
2022-10-20T17:56:35.861Z,58.69
2022-10-20T17:59:07.505Z,58.77
2022-10-20T18:01:40.733Z,58.89
2022-10-20T18:04:15.621Z,58.74
2022-10-20T18:06:45.236Z,58.86
2022-10-20T18:09:18.516Z,58.76
2022-10-20T18:11:51.726Z,58.85
2022-10-20T18:14:20.426Z,58.67
2022-10-20T18:16:49.685Z,58.83
2022-10-20T18:19:19.459Z,59.17
2022-10-20T18:21:47.909Z,58.86
2022-10-20T18:24:18.100Z,59.13
2022-10-20T18:26:46.911Z,59.17
2022-10-20T18:29:15.952Z,59.12
2022-10-20T18:31:46.262Z,59.14
2022-10-20T18:34:20.002Z,59.24
2022-10-20T18:36:48.527Z,59.41
2022-10-20T18:39:17.907Z,59.56
2022-10-20T18:41:46.524Z,59.69
2022-10-20T18:44:17.536Z,59.86
2022-10-20T18:46:47.131Z,59.95
2022-10-20T18:49:19.720Z,60.03
2022-10-20T18:51:48.285Z,60.06
2022-10-20T18:54:17.818Z,59.90
2022-10-20T18:56:45.897Z,60.19
2022-10-20T18:59:16.502Z,60.24
2022-10-20T19:01:45.741Z,60.32
2022-10-20T19:04:13.861Z,60.36
2022-10-20T19:06:46.974Z,60.52
2022-10-20T19:09:18.659Z,60.49
2022-10-20T19:11:48.159Z,60.41
2022-10-20T19:14:16.428Z,60.59
2022-10-20T19:16:47.089Z,60.58
2022-10-20T19:19:15.715Z,60.72
2022-10-20T19:21:44.847Z,60.68
2022-10-20T19:24:21.566Z,60.92
2022-10-20T19:27:24.383Z,60.82
2022-10-20T19:29:42.926Z,60.85
2022-10-20T19:32:12.238Z,60.78
2022-10-20T19:34:41.388Z,61.10
2022-10-20T19:37:09.893Z,60.99
2022-10-20T19:39:42.147Z,61.06
2022-10-20T19:42:11.328Z,61.16
2022-10-20T19:44:39.957Z,61.21
2022-10-20T19:47:08.251Z,61.12
2022-10-20T19:49:37.738Z,60.99
2022-10-20T19:52:07.013Z,61.30
2022-10-20T19:54:34.975Z,61.11
2022-10-20T19:57:03.300Z,61.09
2022-10-20T19:59:31.123Z,61.04
2022-10-20T20:01:59.122Z,61.10
2022-10-20T20:04:27.032Z,61.20
2022-10-20T20:06:59.662Z,61.31
2022-10-20T20:09:30.258Z,60.91
2022-10-20T20:11:58.435Z,60.79
2022-10-20T20:14:26.394Z,60.64
2022-10-20T20:16:54.248Z,60.78
2022-10-20T20:19:22.114Z,60.75
2022-10-20T20:21:50.014Z,60.78
2022-10-20T20:24:17.852Z,60.99
2022-10-20T20:26:47.054Z,61.08
2022-10-20T20:29:14.959Z,60.89
2022-10-20T20:31:42.847Z,60.96
2022-10-20T20:34:10.673Z,60.98
2022-10-20T20:36:39.583Z,61.17
2022-10-20T20:39:07.947Z,61.16
2022-10-20T20:41:35.821Z,61.18
2022-10-20T20:44:07.917Z,61.20
2022-10-20T20:46:36.973Z,61.26
2022-10-20T20:49:05.675Z,61.39
2022-10-20T20:51:34.094Z,61.39
2022-10-20T20:54:03.659Z,61.43
2022-10-20T20:56:31.907Z,61.50
2022-10-20T20:58:59.897Z,61.49
2022-10-20T21:01:33.193Z,61.43
2022-10-20T21:04:04.887Z,61.42
2022-10-20T21:06:43.192Z,61.50
2022-10-20T21:09:21.143Z,61.27
2022-10-20T21:11:49.340Z,61.50
2022-10-20T21:14:17.371Z,61.51
2022-10-20T21:16:45.977Z,61.52
2022-10-20T21:19:14.084Z,61.48
2022-10-20T21:21:47.175Z,61.45
2022-10-20T21:24:15.063Z,61.40
2022-10-20T21:26:43.760Z,61.28
2022-10-20T21:29:11.810Z,61.36
2022-10-20T21:31:40.296Z,61.43
2022-10-20T21:34:08.311Z,61.51
2022-10-20T21:36:37.832Z,61.42
2022-10-20T21:39:08.719Z,61.49
2022-10-20T21:41:37.369Z,61.76
2022-10-20T21:44:07.292Z,61.51
2022-10-20T21:46:42.174Z,61.40
2022-10-20T21:49:14.251Z,61.51
2022-10-20T21:51:45.545Z,61.60
2022-10-20T21:56:54.062Z,61.50
2022-10-20T21:59:28.010Z,61.59
2022-10-20T22:01:59.209Z,61.50
2022-10-20T22:04:29.490Z,61.49
2022-10-20T22:06:59.591Z,60.93
2022-10-20T22:09:28.058Z,61.14
2022-10-20T22:11:58.506Z,61.28
2022-10-20T22:14:26.783Z,61.21
2022-10-20T22:16:56.673Z,61.07
2022-10-20T22:19:25.427Z,61.25
2022-10-20T22:21:54.383Z,61.37
2022-10-20T22:24:23.661Z,61.30
2022-10-20T22:26:52.742Z,61.42
2022-10-20T22:29:22.450Z,61.45
2022-10-20T22:31:50.713Z,61.40
2022-10-20T22:34:18.664Z,61.37
2022-10-20T22:36:46.564Z,61.33
2022-10-20T22:39:14.650Z,61.34
2022-10-20T22:41:42.740Z,61.36
2022-10-20T22:44:10.875Z,61.26
2022-10-20T22:46:38.702Z,61.11
2022-10-20T22:49:06.541Z,61.04
2022-10-20T22:51:34.405Z,61.11
2022-10-20T22:54:03.045Z,61.53
2022-10-20T22:56:30.903Z,61.09
2022-10-20T22:58:58.730Z,60.95
2022-10-20T23:01:26.621Z,60.85
2022-10-20T23:03:54.477Z,60.74
2022-10-20T23:06:26.081Z,60.94
2022-10-20T23:08:56.420Z,60.81
2022-10-20T23:11:24.906Z,60.83
2022-10-20T23:13:52.888Z,60.69
2022-10-20T23:16:21.197Z,60.66
2022-10-20T23:18:49.090Z,60.56
2022-10-20T23:21:18.147Z,60.62
2022-10-20T23:23:46.463Z,60.55
2022-10-20T23:26:14.305Z,60.67
2022-10-20T23:28:42.098Z,60.39
2022-10-20T23:31:13.725Z,60.30
2022-10-20T23:33:44.349Z,60.43
2022-10-20T23:36:13.800Z,60.26
2022-10-20T23:38:43.030Z,60.17
2022-10-20T23:41:11.460Z,60.18
2022-10-20T23:43:39.555Z,60.19
2022-10-20T23:46:07.907Z,59.99
2022-10-20T23:48:35.944Z,60.14
2022-10-20T23:51:05.035Z,60.28
2022-10-20T23:53:33.833Z,60.23
2022-10-20T23:56:01.673Z,60.36
2022-10-20T23:58:29.578Z,60.37
